createdAt,value
2023-04-05T00:00:35.107Z,100.00
2023-04-05T00:03:13.439Z,100.00
2023-04-05T00:05:46.388Z,100.00
2023-04-05T00:08:24.208Z,100.00
2023-04-05T00:10:52.177Z,100.00
2023-04-05T00:13:31.569Z,100.00
2023-04-05T00:16:03.129Z,100.00
2023-04-05T00:18:34.847Z,100.00
2023-04-05T00:21:02.942Z,100.00
2023-04-05T00:23:38.053Z,100.00
2023-04-05T00:26:06.384Z,100.00
2023-04-05T00:28:36.819Z,100.00
2023-04-05T00:31:08.978Z,100.00
2023-04-05T00:33:37.968Z,100.00
2023-04-05T00:36:12.993Z,100.00
2023-04-05T00:38:42.218Z,100.00
2023-04-05T00:41:12.315Z,100.00
2023-04-05T00:43:44.255Z,100.00
2023-04-05T00:46:14.277Z,100.00
2023-04-05T00:48:43.064Z,100.00
2023-04-05T00:51:12.068Z,100.00
2023-04-05T00:53:43.589Z,100.00
2023-04-05T00:56:14.131Z,100.00
2023-04-05T00:58:52.275Z,100.00
2023-04-05T01:01:23.097Z,100.00
2023-04-05T01:04:03.648Z,100.00
2023-04-05T01:06:58.767Z,100.00
2023-04-05T01:09:54.306Z,100.00
2023-04-05T01:12:25.087Z,100.00
2023-04-05T01:14:55.985Z,100.00
2023-04-05T01:17:28.659Z,100.00
2023-04-05T01:20:02.142Z,100.00
2023-04-05T01:22:49.522Z,100.00
2023-04-05T01:25:41.845Z,100.00
2023-04-05T01:28:59.410Z,100.00
2023-04-05T01:31:36.355Z,100.00
2023-04-05T01:34:30.730Z,100.00
2023-04-05T01:37:07.021Z,100.00
2023-04-05T01:39:41.844Z,100.00
2023-04-05T01:42:14.334Z,100.00
2023-04-05T01:44:46.613Z,100.00
2023-04-05T01:47:18.230Z,100.00
2023-04-05T01:49:47.415Z,100.00
2023-04-05T01:52:15.789Z,100.00
2023-04-05T01:54:45.217Z,100.00
2023-04-05T01:57:13.682Z,100.00
2023-04-05T01:59:42.279Z,100.00
2023-04-05T02:02:14.249Z,100.00
2023-04-05T02:04:42.819Z,100.00
2023-04-05T02:07:13.562Z,100.00
2023-04-05T02:09:42.215Z,100.00
2023-04-05T02:12:10.905Z,100.00
2023-04-05T02:14:40.381Z,100.00
2023-04-05T02:17:08.610Z,100.00
2023-04-05T02:19:46.784Z,100.00
2023-04-05T02:22:16.247Z,100.00
2023-04-05T02:25:13.829Z,100.00
2023-04-05T02:27:45.854Z,100.00
2023-04-05T02:30:15.975Z,100.00
2023-04-05T02:32:47.770Z,100.00
2023-04-05T02:35:19.812Z,100.00
2023-04-05T02:37:48.272Z,100.00
2023-04-05T02:40:20.054Z,100.00
2023-04-05T02:42:48.215Z,100.00
2023-04-05T02:45:16.465Z,100.00
2023-04-05T02:47:45.668Z,100.00
2023-04-05T02:50:17.347Z,100.00
2023-04-05T02:52:49.225Z,100.00
2023-04-05T02:55:17.778Z,100.00
2023-04-05T02:57:46.956Z,100.00
2023-04-05T03:00:16.259Z,100.00
2023-04-05T03:02:44.555Z,100.00
2023-04-05T03:05:14.377Z,100.00
2023-04-05T03:07:47.316Z,100.00
2023-04-05T03:10:19.630Z,100.00
2023-04-05T03:12:48.570Z,100.00
2023-04-05T03:15:17.034Z,100.00
2023-04-05T03:17:49.687Z,100.00
2023-04-05T03:20:17.951Z,100.00
2023-04-05T03:22:47.525Z,100.00
2023-04-05T03:25:17.796Z,100.00
2023-04-05T03:27:46.949Z,100.00
2023-04-05T03:30:18.729Z,100.00
2023-04-05T03:33:04.772Z,100.00
2023-04-05T03:35:33.271Z,100.00
2023-04-05T03:38:02.072Z,100.00
2023-04-05T03:40:30.302Z,100.00
2023-04-05T03:43:00.903Z,100.00
2023-04-05T03:45:30.835Z,100.00
2023-04-05T03:47:59.894Z,100.00
2023-04-05T03:50:28.696Z,100.00
2023-04-05T03:53:01.238Z,100.00
2023-04-05T03:55:32.643Z,100.00
2023-04-05T03:58:01.221Z,100.00
2023-04-05T04:00:31.449Z,100.00
2023-04-05T04:03:07.982Z,100.00
2023-04-05T04:05:40.257Z,100.00
2023-04-05T04:08:10.853Z,100.00
2023-04-05T04:10:39.282Z,100.00
2023-04-05T04:13:09.674Z,100.00
2023-04-05T04:15:38.060Z,100.00
2023-04-05T04:18:06.781Z,100.00
2023-04-05T04:20:35.809Z,100.00
2023-04-05T04:23:05.328Z,100.00
2023-04-05T04:25:33.459Z,100.00
2023-04-05T04:28:02.063Z,100.00
2023-04-05T04:30:30.452Z,100.00
2023-04-05T04:33:00.236Z,100.00
2023-04-05T04:35:30.026Z,100.00
2023-04-05T04:38:05.434Z,100.00
2023-04-05T04:40:39.466Z,100.00
2023-04-05T04:43:19.353Z,100.00
2023-04-05T04:45:48.665Z,99.79
2023-04-05T04:48:17.620Z,98.11
2023-04-05T04:50:48.807Z,95.48
2023-04-05T04:53:20.087Z,96.35
2023-04-05T04:55:51.449Z,95.10
2023-04-05T04:58:19.895Z,91.32
2023-04-05T05:00:50.337Z,89.85
2023-04-05T05:03:19.724Z,89.37
2023-04-05T05:05:50.673Z,89.42
2023-04-05T05:08:21.358Z,76.01
2023-04-05T05:10:57.408Z,77.65
2023-04-05T05:13:27.921Z,77.57
2023-04-05T05:15:56.525Z,77.96
2023-04-05T05:18:25.790Z,77.60
2023-04-05T05:20:54.706Z,78.25
2023-04-05T05:23:25.521Z,81.03
2023-04-05T05:26:01.200Z,78.68
2023-04-05T05:28:29.293Z,77.86
2023-04-05T05:30:57.802Z,76.80
2023-04-05T05:33:26.800Z,75.82
2023-04-05T05:35:55.175Z,77.37
2023-04-05T05:38:24.017Z,79.35
2023-04-05T05:40:59.261Z,81.88
2023-04-05T05:43:27.436Z,86.35
2023-04-05T05:45:55.932Z,86.22
2023-04-05T05:48:24.203Z,87.90
2023-04-05T05:50:52.271Z,85.42
2023-04-05T05:53:20.980Z,87.31
2023-04-05T05:55:51.695Z,89.56
2023-04-05T05:58:20.254Z,87.73
2023-04-05T06:00:50.590Z,89.67
2023-04-05T06:03:19.549Z,91.09
2023-04-05T06:05:58.718Z,92.67
2023-04-05T06:08:30.571Z,94.56
2023-04-05T06:11:01.615Z,99.84
2023-04-05T06:13:30.602Z,100.00
2023-04-05T06:16:06.504Z,100.00
2023-04-05T06:18:35.298Z,100.00
2023-04-05T06:21:03.933Z,100.00
2023-04-05T06:23:34.412Z,100.00
2023-04-05T06:26:03.102Z,100.00
2023-04-05T06:28:30.778Z,100.00
2023-04-05T06:30:59.961Z,100.00
2023-04-05T06:33:28.567Z,100.00
2023-04-05T06:35:56.676Z,100.00
2023-04-05T06:38:26.737Z,100.00
2023-04-05T06:40:57.886Z,100.00
2023-04-05T06:43:25.863Z,100.00
2023-04-05T06:45:56.681Z,100.00
2023-04-05T06:48:26.054Z,100.00
2023-04-05T06:51:02.258Z,100.00
2023-04-05T06:53:41.215Z,100.00
2023-04-05T06:56:11.738Z,100.00
2023-04-05T06:58:40.738Z,100.00
2023-04-05T07:01:09.142Z,100.00
2023-04-05T07:03:42.849Z,100.00
2023-04-05T07:08:56.545Z,100.00
2023-04-05T07:11:24.998Z,100.00
2023-04-05T07:13:55.241Z,100.00
2023-04-05T07:16:24.385Z,98.79
2023-04-05T07:18:52.952Z,98.95
2023-04-05T07:21:24.773Z,97.69
2023-04-05T07:23:56.373Z,98.61
2023-04-05T07:26:30.741Z,97.79
2023-04-05T07:29:00.644Z,99.27
2023-04-05T07:31:29.673Z,99.63
2023-04-05T07:34:01.074Z,99.07
2023-04-05T07:36:31.237Z,98.76
2023-04-05T07:39:02.195Z,99.68
2023-04-05T07:41:32.216Z,98.35
2023-04-05T07:44:02.594Z,98.32
2023-04-05T07:46:31.476Z,95.55
2023-04-05T07:48:59.853Z,95.49
2023-04-05T07:51:28.748Z,95.64
2023-04-05T07:54:01.871Z,94.86
2023-04-05T07:56:37.498Z,94.13
2023-04-05T07:59:05.752Z,97.92
2023-04-05T08:01:35.640Z,98.89
2023-04-05T08:04:03.528Z,100.00
2023-04-05T08:06:31.633Z,99.23
2023-04-05T08:08:59.670Z,98.71
2023-04-05T08:11:32.636Z,98.44
2023-04-05T08:14:01.772Z,96.09
2023-04-05T08:19:17.072Z,91.17
2023-04-05T08:21:45.289Z,89.98
2023-04-05T08:24:14.078Z,88.50
2023-04-05T08:26:42.518Z,88.02
2023-04-05T08:29:11.506Z,88.24
2023-04-05T08:31:41.214Z,88.86
2023-04-05T08:34:10.262Z,89.57
2023-04-05T08:36:38.617Z,88.31
2023-04-05T08:39:07.607Z,87.35
2023-04-05T08:41:37.780Z,86.13
2023-04-05T08:44:06.349Z,84.33
2023-04-05T08:46:35.814Z,84.46
2023-04-05T08:49:08.483Z,84.60
2023-04-05T08:51:40.176Z,85.26
2023-04-05T08:54:10.683Z,86.15
2023-04-05T08:56:39.605Z,85.08
2023-04-05T08:59:12.079Z,84.18
2023-04-05T09:01:45.260Z,83.82
2023-04-05T09:04:24.899Z,84.51
2023-04-05T09:06:56.438Z,83.63
2023-04-05T09:09:36.291Z,85.29
2023-04-05T09:12:06.017Z,86.46
2023-04-05T09:14:39.021Z,86.11
2023-04-05T09:17:11.626Z,85.71
2023-04-05T09:19:39.747Z,86.93
2023-04-05T09:22:09.054Z,86.87
2023-04-05T09:24:42.508Z,88.75
2023-04-05T09:27:15.154Z,89.00
2023-04-05T09:29:45.347Z,85.47
2023-04-05T09:32:16.794Z,83.77
2023-04-05T09:34:45.013Z,84.36
2023-04-05T09:37:21.208Z,84.00
2023-04-05T09:39:52.165Z,84.13
2023-04-05T09:42:23.461Z,84.52
2023-04-05T09:45:08.486Z,84.94
2023-04-05T09:47:37.993Z,83.50
2023-04-05T09:50:15.044Z,83.11
2023-04-05T09:52:44.155Z,82.43
2023-04-05T09:55:12.580Z,81.92
2023-04-05T09:57:44.280Z,79.37
2023-04-05T10:00:21.589Z,78.11
2023-04-05T10:02:54.901Z,74.96
2023-04-05T10:05:29.243Z,72.90
2023-04-05T10:07:57.589Z,71.87
2023-04-05T10:10:26.790Z,71.83
2023-04-05T10:12:56.730Z,72.23
2023-04-05T10:15:26.970Z,72.78
2023-04-05T10:18:01.829Z,74.81
2023-04-05T10:20:33.446Z,75.40
2023-04-05T10:23:13.781Z,74.96
2023-04-05T10:25:56.359Z,76.04
2023-04-05T10:28:35.894Z,75.57
2023-04-05T10:31:37.092Z,77.40
2023-04-05T10:34:24.383Z,76.36
2023-04-05T10:37:04.901Z,76.66
2023-04-05T10:39:43.792Z,77.30
2023-04-05T10:42:22.932Z,76.63
2023-04-05T10:45:00.417Z,76.17
2023-04-05T10:47:29.612Z,74.72
2023-04-05T10:50:04.857Z,72.26
2023-04-05T10:52:33.558Z,69.28
2023-04-05T10:55:03.927Z,65.45
2023-04-05T10:57:32.675Z,63.80
2023-04-05T11:00:01.956Z,60.03
2023-04-05T11:02:46.503Z,58.10
2023-04-05T11:05:38.009Z,57.10
2023-04-05T11:08:10.055Z,56.08
2023-04-05T11:10:52.093Z,56.64
2023-04-05T11:13:51.708Z,56.52
2023-04-05T11:16:21.062Z,57.19
2023-04-05T11:18:56.704Z,57.29
2023-04-05T11:21:26.600Z,57.58
2023-04-05T11:24:06.991Z,56.76
2023-04-05T11:26:56.356Z,56.70
2023-04-05T11:29:49.834Z,57.53
2023-04-05T11:32:18.675Z,57.50
2023-04-05T11:35:03.959Z,57.35
2023-04-05T11:38:12.390Z,57.02
2023-04-05T11:40:43.917Z,56.60
2023-04-05T11:43:12.833Z,56.49
2023-04-05T11:45:44.309Z,56.22
2023-04-05T11:48:15.747Z,56.04
2023-04-05T11:50:45.780Z,50.92
2023-04-05T11:53:16.379Z,49.32
2023-04-05T11:55:52.271Z,48.92
2023-04-05T11:58:25.612Z,46.95
2023-04-05T12:01:06.850Z,47.53
2023-04-05T12:03:37.495Z,47.07
2023-04-05T12:06:08.090Z,46.81
2023-04-05T12:08:40.870Z,45.43
2023-04-05T12:11:12.258Z,45.54
2023-04-05T12:13:40.858Z,46.11
2023-04-05T12:16:09.943Z,45.98
2023-04-05T12:18:39.435Z,46.42
2023-04-05T12:21:11.509Z,46.41
2023-04-05T12:23:39.934Z,46.92
2023-04-05T12:26:08.947Z,47.22
2023-04-05T12:29:09.733Z,48.36
2023-04-05T12:31:47.758Z,48.81
2023-04-05T12:34:16.792Z,49.60
2023-04-05T12:36:46.850Z,50.47
2023-04-05T12:39:17.706Z,51.52
2023-04-05T12:41:57.475Z,52.85
2023-04-05T12:44:30.832Z,55.68
2023-04-05T12:47:09.559Z,58.08
2023-04-05T12:49:40.562Z,58.78
2023-04-05T12:52:09.170Z,60.16
2023-04-05T12:54:46.528Z,61.67
2023-04-05T12:57:14.836Z,65.46
2023-04-05T12:59:44.627Z,71.38
2023-04-05T13:02:13.262Z,73.31
2023-04-05T13:04:41.743Z,75.36
2023-04-05T13:07:12.952Z,76.77
2023-04-05T13:09:41.375Z,75.90
2023-04-05T13:12:09.836Z,72.75
2023-04-05T13:14:41.065Z,70.71
2023-04-05T13:17:09.183Z,70.04
2023-04-05T13:19:39.816Z,69.64
2023-04-05T13:22:09.268Z,67.95
2023-04-05T13:24:37.354Z,66.62
2023-04-05T13:27:08.328Z,66.10
2023-04-05T13:29:37.253Z,65.25
2023-04-05T13:32:06.365Z,65.56
2023-04-05T13:34:34.425Z,65.29
2023-04-05T13:37:02.496Z,65.05
2023-04-05T13:39:32.863Z,64.81
2023-04-05T13:42:02.358Z,65.94
2023-04-05T13:44:38.833Z,66.69
2023-04-05T13:47:07.863Z,68.79
2023-04-05T13:49:36.834Z,69.44
2023-04-05T13:52:05.971Z,70.44
2023-04-05T13:54:33.898Z,71.46
2023-04-05T13:57:08.972Z,71.26
2023-04-05T13:59:37.513Z,69.79
2023-04-05T14:02:12.242Z,71.45
2023-04-05T14:04:41.339Z,71.99
2023-04-05T14:07:12.256Z,70.41
2023-04-05T14:09:40.742Z,69.46
2023-04-05T14:12:11.234Z,69.17
2023-04-05T14:14:42.684Z,70.31
2023-04-05T14:17:17.182Z,71.75
2023-04-05T14:19:47.924Z,76.29
2023-04-05T14:22:16.547Z,79.47
2023-04-05T14:24:48.181Z,84.84
2023-04-05T14:27:16.638Z,86.58
2023-04-05T14:29:47.785Z,88.50
2023-04-05T14:32:16.143Z,94.33
2023-04-05T14:34:44.312Z,98.65
2023-04-05T14:37:12.679Z,100.00
2023-04-05T14:39:45.447Z,100.00
2023-04-05T14:42:14.153Z,100.00
2023-04-05T14:44:42.279Z,100.00
2023-04-05T14:47:10.676Z,100.00
2023-04-05T14:49:38.792Z,100.00
2023-04-05T14:52:07.255Z,100.00
2023-04-05T14:54:35.511Z,100.00
2023-04-05T14:57:03.932Z,100.00
2023-04-05T14:59:32.684Z,100.00
2023-04-05T15:02:01.462Z,100.00
2023-04-05T15:04:31.204Z,100.00
2023-04-05T15:06:59.559Z,100.00
2023-04-05T15:09:28.035Z,100.00
2023-04-05T15:11:57.100Z,100.00
2023-04-05T15:14:31.809Z,100.00
2023-04-05T15:17:00.888Z,100.00
2023-04-05T15:19:30.881Z,100.00
2023-04-05T15:22:02.324Z,100.00
2023-04-05T15:24:37.918Z,100.00
2023-04-05T15:27:09.031Z,100.00
2023-04-05T15:29:42.605Z,100.00
2023-04-05T15:32:11.178Z,100.00
2023-04-05T15:34:40.796Z,100.00
2023-04-05T15:37:10.681Z,100.00
2023-04-05T15:39:39.072Z,100.00
2023-04-05T15:42:07.176Z,100.00
2023-04-05T15:44:35.043Z,100.00
2023-04-05T15:47:04.189Z,100.00
2023-04-05T15:49:34.390Z,100.00
2023-04-05T15:52:03.082Z,100.00
2023-04-05T15:54:34.366Z,100.00
2023-04-05T15:57:04.838Z,100.00
2023-04-05T15:59:32.784Z,100.00
2023-04-05T16:02:01.130Z,100.00
2023-04-05T16:04:30.736Z,100.00
2023-04-05T16:07:00.626Z,100.00
2023-04-05T16:09:30.476Z,100.00
2023-04-05T16:12:00.064Z,100.00
2023-04-05T16:14:34.676Z,100.00
2023-04-05T16:17:03.049Z,100.00
2023-04-05T16:19:32.299Z,100.00
2023-04-05T16:22:03.716Z,100.00
2023-04-05T16:24:33.689Z,100.00
2023-04-05T16:27:06.245Z,100.00
2023-04-05T16:29:36.462Z,100.00
2023-04-05T16:32:08.494Z,100.00
2023-04-05T16:34:37.311Z,100.00
2023-04-05T16:37:05.912Z,100.00
2023-04-05T16:39:36.985Z,100.00
2023-04-05T16:42:05.351Z,100.00
2023-04-05T16:44:33.604Z,100.00
2023-04-05T16:47:06.870Z,100.00
2023-04-05T16:49:35.419Z,100.00
2023-04-05T16:52:03.757Z,100.00
2023-04-05T16:54:40.801Z,100.00
2023-04-05T16:57:09.590Z,100.00
2023-04-05T16:59:38.694Z,100.00
2023-04-05T17:02:07.750Z,100.00
2023-04-05T17:04:37.778Z,100.00
2023-04-05T17:07:06.586Z,100.00
2023-04-05T17:09:35.358Z,100.00
2023-04-05T17:12:04.745Z,100.00
2023-04-05T17:14:34.559Z,100.00
2023-04-05T17:17:02.582Z,100.00
2023-04-05T17:19:31.013Z,100.00
2023-04-05T17:22:02.312Z,100.00
2023-04-05T17:24:37.938Z,100.00
2023-04-05T17:27:10.116Z,100.00
2023-04-05T17:29:40.017Z,100.00
2023-04-05T17:32:08.607Z,100.00
2023-04-05T17:34:37.161Z,100.00
2023-04-05T17:37:07.324Z,100.00
2023-04-05T17:39:37.586Z,100.00
2023-04-05T17:42:05.785Z,100.00
2023-04-05T17:44:37.080Z,100.00
2023-04-05T17:47:09.031Z,100.00
2023-04-05T17:49:38.500Z,100.00
2023-04-05T17:52:13.064Z,100.00
2023-04-05T17:54:42.583Z,100.00
2023-04-05T17:57:18.332Z,100.00
2023-04-05T17:59:46.634Z,100.00
2023-04-05T18:02:15.477Z,100.00
2023-04-05T18:04:44.781Z,100.00
2023-04-05T18:07:13.141Z,100.00
2023-04-05T18:09:46.445Z,100.00
2023-04-05T18:12:14.791Z,100.00
2023-04-05T18:14:46.296Z,100.00
2023-04-05T18:17:15.768Z,100.00
2023-04-05T18:19:45.202Z,100.00
2023-04-05T18:22:13.943Z,100.00
2023-04-05T18:24:48.061Z,100.00
2023-04-05T18:27:16.473Z,100.00
2023-04-05T18:29:49.040Z,100.00
2023-04-05T18:32:32.313Z,100.00
2023-04-05T18:35:00.808Z,100.00
2023-04-05T18:37:29.309Z,100.00
2023-04-05T18:39:57.740Z,100.00
2023-04-05T18:42:26.253Z,100.00
2023-04-05T18:44:54.551Z,100.00
2023-04-05T18:47:22.864Z,100.00
2023-04-05T18:49:52.606Z,100.00
2023-04-05T18:52:26.752Z,100.00
2023-04-05T18:54:58.772Z,100.00
2023-04-05T18:57:30.177Z,100.00
2023-04-05T18:59:58.526Z,100.00
2023-04-05T19:02:27.159Z,100.00
2023-04-05T19:04:55.665Z,100.00
2023-04-05T19:07:24.377Z,100.00
2023-04-05T19:09:52.693Z,100.00
2023-04-05T19:12:21.552Z,100.00
2023-04-05T19:16:47.412Z,100.00
2023-04-05T19:19:16.561Z,100.00
2023-04-05T19:21:52.934Z,100.00
2023-04-05T19:24:22.543Z,100.00
2023-04-05T19:26:51.297Z,100.00
2023-04-05T19:29:21.594Z,100.00
2023-04-05T19:32:14.288Z,100.00
2023-04-05T19:34:45.716Z,100.00
2023-04-05T19:37:18.982Z,100.00
2023-04-05T19:39:48.614Z,100.00
2023-04-05T19:42:17.428Z,100.00
2023-04-05T19:44:55.440Z,100.00
2023-04-05T19:47:27.312Z,100.00
2023-04-05T19:49:57.101Z,100.00
2023-04-05T19:52:44.331Z,100.00
2023-04-05T19:55:34.186Z,100.00
2023-04-05T19:58:10.769Z,100.00
2023-04-05T20:00:52.918Z,100.00
2023-04-05T20:03:37.611Z,100.00
2023-04-05T20:06:10.182Z,100.00
2023-04-05T20:08:41.815Z,100.00
2023-04-05T20:11:17.423Z,100.00
2023-04-05T20:13:57.291Z,100.00
2023-04-05T20:16:37.396Z,100.00
2023-04-05T20:19:08.173Z,100.00
2023-04-05T20:21:40.297Z,100.00
2023-04-05T20:24:12.979Z,100.00
2023-04-05T20:26:46.557Z,100.00
2023-04-05T20:29:17.644Z,100.00
2023-04-05T20:31:47.308Z,100.00
2023-04-05T20:34:20.407Z,100.00
2023-04-05T20:36:51.197Z,100.00
2023-04-05T20:39:23.915Z,100.00
2023-04-05T20:41:52.846Z,100.00
2023-04-05T20:44:28.928Z,100.00
2023-04-05T20:46:58.580Z,100.00
2023-04-05T20:49:28.632Z,100.00
2023-04-05T20:52:01.057Z,100.00
2023-04-05T20:54:29.787Z,100.00
2023-04-05T20:56:58.878Z,100.00
2023-04-05T20:59:28.797Z,100.00
2023-04-05T21:01:56.934Z,100.00
2023-04-05T21:04:29.357Z,100.00
2023-04-05T21:06:58.984Z,100.00
2023-04-05T21:09:29.560Z,100.00
2023-04-05T21:11:59.235Z,100.00
2023-04-05T21:14:28.536Z,100.00
2023-04-05T21:16:56.792Z,100.00
2023-04-05T21:19:26.261Z,100.00
2023-04-05T21:21:54.666Z,100.00
2023-04-05T21:24:22.893Z,100.00
2023-04-05T21:26:51.250Z,100.00
2023-04-05T21:29:23.436Z,100.00
2023-04-05T21:31:51.778Z,100.00
2023-04-05T21:34:20.302Z,100.00
2023-04-05T21:36:50.001Z,100.00
2023-04-05T21:39:18.195Z,100.00
2023-04-05T21:41:46.953Z,100.00
2023-04-05T21:44:20.936Z,100.00
2023-04-05T21:46:49.888Z,100.00
2023-04-05T21:49:25.292Z,100.00
2023-04-05T21:51:53.675Z,100.00
2023-04-05T21:54:22.113Z,100.00
2023-04-05T21:56:52.995Z,100.00
2023-04-05T21:59:22.176Z,100.00
2023-04-05T22:02:01.842Z,100.00
2023-04-05T22:04:31.377Z,100.00
2023-04-05T22:07:00.131Z,100.00
2023-04-05T22:09:29.129Z,100.00
2023-04-05T22:12:02.351Z,100.00
2023-04-05T22:14:31.124Z,100.00
2023-04-05T22:16:59.428Z,100.00
2023-04-05T22:19:32.785Z,100.00
2023-04-05T22:22:04.169Z,100.00
2023-04-05T22:24:32.500Z,100.00
2023-04-05T22:27:01.348Z,100.00
2023-04-05T22:29:29.731Z,100.00
2023-04-05T22:32:00.321Z,100.00
2023-04-05T22:34:29.169Z,100.00
2023-04-05T22:36:57.873Z,100.00
2023-04-05T22:39:26.685Z,100.00
2023-04-05T22:41:55.390Z,100.00
2023-04-05T22:44:24.966Z,100.00
2023-04-05T22:46:55.379Z,100.00
2023-04-05T22:49:23.387Z,100.00
2023-04-05T22:51:51.632Z,100.00
2023-04-05T22:54:19.651Z,100.00
2023-04-05T22:56:47.913Z,100.00
2023-04-05T22:59:20.474Z,100.00
2023-04-05T23:01:51.023Z,100.00
2023-04-05T23:04:19.440Z,100.00
2023-04-05T23:06:48.092Z,100.00
2023-04-05T23:09:16.690Z,100.00
2023-04-05T23:11:47.309Z,100.00
2023-04-05T23:14:16.565Z,100.00
2023-04-05T23:16:46.320Z,100.00
2023-04-05T23:19:17.151Z,100.00
2023-04-05T23:21:45.827Z,100.00
2023-04-05T23:24:14.271Z,100.00
2023-04-05T23:26:42.483Z,100.00
2023-04-05T23:29:14.944Z,100.00
2023-04-05T23:31:43.780Z,100.00
2023-04-05T23:34:15.088Z,100.00
2023-04-05T23:36:46.788Z,100.00
2023-04-05T23:39:15.420Z,100.00
2023-04-05T23:41:43.733Z,100.00
2023-04-05T23:44:12.096Z,100.00
2023-04-05T23:47:05.479Z,100.00
2023-04-05T23:49:34.348Z,100.00
2023-04-05T23:52:02.784Z,100.00
2023-04-05T23:54:30.902Z,100.00
2023-04-05T23:56:59.817Z,100.00
2023-04-05T23:59:27.954Z,100.00
